Sheffield, Massachusetts
Current Conditions -  °F | °C
As of 1:44 AM on Monday 24 Nov 2014 (Local Time) from KPSF Reporting Station
Overcast Overcast  
Wind Chill: 36°   Ceiling: 2900
Heat Index: 36°   Visibility: 9mi
Dew Point: 34°   Wind: 0mph
Humidity: 93%   Direction: NA
Pressure: 29.93"   Gusts: NA
Location:  42.11°N, 73.36°W
Report Text: KPSF 240644Z AUTO 00000KT 9SM BKN029 OVC034 02/01 A2993 RMK AO2 T00220011
Loading
Personal Weather Stations






























Interactive Weather Map New forecast layout! Learn more

10-Day Weather Forecast

Advertisements
Track Severe Weather on mobile